createdAt,value
2017-12-03T00:02:18.221Z,81.50
2017-12-03T00:04:47.286Z,81.34
2017-12-03T00:07:15.598Z,80.98
2017-12-03T00:09:45.389Z,81.16
2017-12-03T00:12:14.590Z,80.86
2017-12-03T00:14:43.714Z,80.88
2017-12-03T00:17:12.960Z,80.60
2017-12-03T00:19:41.268Z,80.66
2017-12-03T00:22:09.659Z,80.91
2017-12-03T00:24:38.745Z,80.99
2017-12-03T00:27:07.068Z,80.96
2017-12-03T00:29:35.366Z,80.65
2017-12-03T00:32:03.676Z,80.67
2017-12-03T00:34:32.070Z,80.55
2017-12-03T00:37:01.155Z,80.32
2017-12-03T00:39:29.484Z,80.40
2017-12-03T00:41:57.805Z,80.77
2017-12-03T00:44:26.132Z,80.67
2017-12-03T00:46:55.218Z,80.71
2017-12-03T00:49:23.552Z,80.69
2017-12-03T00:51:51.861Z,80.67
2017-12-03T00:54:20.169Z,80.79
2017-12-03T00:56:49.235Z,80.84
2017-12-03T00:59:17.578Z,81.24
2017-12-03T01:01:45.900Z,81.12
2017-12-03T01:04:14.220Z,81.83
2017-12-03T01:06:43.300Z,81.68
2017-12-03T01:09:12.383Z,81.65
2017-12-03T01:11:40.698Z,81.52
2017-12-03T01:14:09.833Z,81.16
2017-12-03T01:16:38.136Z,81.08
2017-12-03T01:19:06.468Z,80.90
2017-12-03T01:21:34.794Z,80.85
2017-12-03T01:24:03.902Z,81.29
2017-12-03T01:26:32.233Z,81.06
2017-12-03T01:29:01.153Z,80.93
2017-12-03T01:31:29.464Z,80.86
2017-12-03T01:33:58.568Z,81.04
2017-12-03T01:36:27.653Z,81.47
2017-12-03T01:38:55.948Z,81.69
2017-12-03T01:41:24.268Z,81.37
2017-12-03T01:43:52.589Z,81.68
2017-12-03T01:46:20.944Z,81.72
2017-12-03T01:48:49.259Z,81.71
2017-12-03T01:51:17.585Z,81.64
2017-12-03T01:53:45.978Z,81.64
2017-12-03T01:56:14.285Z,81.44
2017-12-03T01:58:42.597Z,81.56
2017-12-03T02:01:10.928Z,81.33
2017-12-03T02:03:39.356Z,81.03
2017-12-03T02:06:07.836Z,81.03
2017-12-03T02:08:36.180Z,81.31
2017-12-03T02:11:06.041Z,81.50
2017-12-03T02:13:34.350Z,81.15
2017-12-03T02:16:02.662Z,81.03
2017-12-03T02:18:30.976Z,80.92
2017-12-03T02:21:00.046Z,80.91
2017-12-03T02:23:28.362Z,80.88
2017-12-03T02:25:56.708Z,80.05
2017-12-03T02:28:25.042Z,79.26
2017-12-03T02:30:54.111Z,78.94
2017-12-03T02:33:22.438Z,78.78
2017-12-03T02:35:50.769Z,78.96
2017-12-03T02:38:19.105Z,79.30
2017-12-03T02:40:47.408Z,79.28
2017-12-03T02:43:15.720Z,79.11
2017-12-03T02:45:44.815Z,78.89
2017-12-03T02:48:13.187Z,79.03
2017-12-03T02:50:41.492Z,79.47
2017-12-03T02:53:10.580Z,79.59
2017-12-03T02:55:38.901Z,79.47
2017-12-03T02:58:07.232Z,79.41
2017-12-03T03:00:35.614Z,79.58
2017-12-03T03:03:04.200Z,80.22
2017-12-03T03:05:32.514Z,80.55
2017-12-03T03:08:00.836Z,80.99
2017-12-03T03:10:29.166Z,81.11
2017-12-03T03:12:58.336Z,81.27
2017-12-03T03:15:26.650Z,81.34
2017-12-03T03:17:55.786Z,81.63
2017-12-03T03:20:24.872Z,81.79
2017-12-03T03:22:53.186Z,81.90
2017-12-03T03:25:21.520Z,81.98
2017-12-03T03:27:49.840Z,82.28
2017-12-03T03:30:18.155Z,82.43
2017-12-03T03:32:47.337Z,82.51
2017-12-03T03:35:15.656Z,82.71
2017-12-03T03:37:44.737Z,83.00
2017-12-03T03:40:13.056Z,82.86
2017-12-03T03:42:41.362Z,83.06
2017-12-03T03:45:09.678Z,83.17
2017-12-03T03:47:38.029Z,83.10
2017-12-03T03:50:06.346Z,83.03
2017-12-03T03:52:35.562Z,83.12
2017-12-03T03:55:03.873Z,83.33
2017-12-03T03:57:32.190Z,83.35
2017-12-03T04:00:00.492Z,83.33
2017-12-03T04:02:29.735Z,83.29
2017-12-03T04:04:58.062Z,83.42
2017-12-03T04:07:26.384Z,83.36
2017-12-03T04:09:54.700Z,83.42
2017-12-03T04:12:23.054Z,83.47
2017-12-03T04:14:51.376Z,83.51
2017-12-03T04:17:19.674Z,83.61
2017-12-03T04:19:47.984Z,83.79
2017-12-03T04:22:16.311Z,83.99
2017-12-03T04:24:44.667Z,84.08
2017-12-03T04:27:12.972Z,84.15
2017-12-03T04:29:41.292Z,84.55
2017-12-03T04:32:10.369Z,84.70
2017-12-03T04:34:38.687Z,84.57
2017-12-03T04:37:07.018Z,84.60
2017-12-03T04:39:35.454Z,84.59
2017-12-03T04:42:03.786Z,84.35
2017-12-03T04:44:32.096Z,84.45
2017-12-03T04:47:00.409Z,84.49
2017-12-03T04:49:28.729Z,84.52
2017-12-03T04:51:57.825Z,84.37
2017-12-03T04:54:27.647Z,84.53
2017-12-03T04:56:55.963Z,84.78
2017-12-03T04:59:24.301Z,84.68
2017-12-03T05:01:52.709Z,84.69
2017-12-03T05:04:21.802Z,84.76
2017-12-03T05:06:50.875Z,85.02
2017-12-03T05:09:19.419Z,84.52
2017-12-03T05:11:47.742Z,84.56
2017-12-03T05:14:16.051Z,84.55
2017-12-03T05:16:45.138Z,84.46
2017-12-03T05:19:13.458Z,84.61
2017-12-03T05:21:41.889Z,84.51
2017-12-03T05:24:10.209Z,84.44
2017-12-03T05:26:38.537Z,84.25
2017-12-03T05:29:06.856Z,84.40
2017-12-03T05:31:35.932Z,84.39
2017-12-03T05:34:05.019Z,84.62
2017-12-03T05:36:33.339Z,84.42
2017-12-03T05:39:02.430Z,84.55
2017-12-03T05:41:31.508Z,84.55
2017-12-03T05:43:59.808Z,84.41
2017-12-03T05:46:28.147Z,84.49
2017-12-03T05:48:56.445Z,84.50
2017-12-03T05:51:24.764Z,84.75
2017-12-03T05:53:53.086Z,84.76
2017-12-03T05:56:21.383Z,84.54
2017-12-03T05:58:49.678Z,84.68
2017-12-03T06:01:18.083Z,84.64
2017-12-03T06:03:47.228Z,84.69
2017-12-03T06:06:15.540Z,84.66
2017-12-03T06:08:44.040Z,84.63
2017-12-03T06:11:13.265Z,84.78
2017-12-03T06:13:41.566Z,84.56
2017-12-03T06:16:09.867Z,84.47
2017-12-03T06:18:38.177Z,84.38
2017-12-03T06:21:07.267Z,84.31
2017-12-03T06:23:35.587Z,84.32
2017-12-03T06:26:03.893Z,84.23
2017-12-03T06:28:32.211Z,84.48
2017-12-03T06:31:00.535Z,84.54
2017-12-03T06:33:28.841Z,84.66
2017-12-03T06:35:57.152Z,84.62
2017-12-03T06:38:26.243Z,84.75
2017-12-03T06:40:54.552Z,85.05
2017-12-03T06:43:23.619Z,84.99
2017-12-03T06:45:53.440Z,85.07
2017-12-03T06:48:22.521Z,85.34
2017-12-03T06:50:50.835Z,85.53
2017-12-03T06:53:19.908Z,85.83
2017-12-03T06:55:48.215Z,85.66
2017-12-03T06:58:19.147Z,85.59
2017-12-03T07:00:48.233Z,85.66
2017-12-03T07:03:16.557Z,85.53
2017-12-03T07:05:44.910Z,85.45
2017-12-03T07:08:13.993Z,85.43
2017-12-03T07:10:43.860Z,85.38
2017-12-03T07:13:12.178Z,85.49
2017-12-03T07:15:40.523Z,85.49
2017-12-03T07:18:08.848Z,85.38
2017-12-03T07:20:37.924Z,85.43
2017-12-03T07:23:06.394Z,85.16
2017-12-03T07:25:34.685Z,85.41
2017-12-03T07:28:03.009Z,85.35
2017-12-03T07:30:32.093Z,85.40
2017-12-03T07:33:00.415Z,85.58
2017-12-03T07:35:28.756Z,85.55
2017-12-03T07:37:57.079Z,85.34
2017-12-03T07:40:25.383Z,85.35
2017-12-03T07:42:53.708Z,85.49
2017-12-03T07:45:22.129Z,85.54
2017-12-03T07:47:50.513Z,85.49
2017-12-03T07:50:18.813Z,85.16
2017-12-03T07:52:47.111Z,85.16
2017-12-03T07:55:15.419Z,85.26
2017-12-03T07:57:44.499Z,85.41
2017-12-03T08:00:14.322Z,85.31
2017-12-03T08:02:42.707Z,85.16
2017-12-03T08:05:11.781Z,85.21
2017-12-03T08:07:40.120Z,85.39
2017-12-03T08:10:08.463Z,85.27
2017-12-03T08:12:36.793Z,84.98
2017-12-03T08:15:05.103Z,85.08
2017-12-03T08:17:33.439Z,85.07
2017-12-03T08:20:01.745Z,85.05
2017-12-03T08:22:30.062Z,85.09
2017-12-03T08:24:58.413Z,84.98
2017-12-03T08:27:26.733Z,84.94
2017-12-03T08:29:55.049Z,84.77
2017-12-03T08:32:23.343Z,84.59
2017-12-03T08:34:52.486Z,84.64
2017-12-03T08:37:21.133Z,84.69
2017-12-03T08:39:49.445Z,84.83
2017-12-03T08:42:17.808Z,84.71
2017-12-03T08:44:46.219Z,84.65
2017-12-03T08:47:15.261Z,84.61
2017-12-03T08:49:44.543Z,84.55
2017-12-03T08:52:13.647Z,84.36
2017-12-03T08:54:46.903Z,84.39
2017-12-03T08:57:16.095Z,84.15
2017-12-03T08:59:44.409Z,84.00
2017-12-03T09:02:13.537Z,84.03
2017-12-03T09:04:41.861Z,83.90
2017-12-03T09:07:10.180Z,83.73
2017-12-03T09:09:39.261Z,83.99
2017-12-03T09:12:07.645Z,83.96
2017-12-03T09:14:36.804Z,84.11
2017-12-03T09:17:05.119Z,84.36
2017-12-03T09:19:33.429Z,84.57
2017-12-03T09:22:01.741Z,84.43
2017-12-03T09:24:30.044Z,84.61
2017-12-03T09:26:58.353Z,84.66
2017-12-03T09:29:27.417Z,84.61
2017-12-03T09:31:55.750Z,84.55
2017-12-03T09:34:24.073Z,84.46
2017-12-03T09:36:52.369Z,84.70
2017-12-03T09:39:20.709Z,84.84
2017-12-03T09:41:49.015Z,84.69
2017-12-03T09:44:17.385Z,84.53
2017-12-03T09:46:45.743Z,84.68
2017-12-03T09:49:14.094Z,84.53
2017-12-03T09:51:42.395Z,84.75
2017-12-03T09:54:10.718Z,84.64
2017-12-03T09:56:39.039Z,84.73
2017-12-03T09:59:08.455Z,84.74
2017-12-03T10:01:37.535Z,84.79
2017-12-03T10:04:05.843Z,85.04
2017-12-03T10:06:34.232Z,85.02
2017-12-03T10:09:02.531Z,85.45
2017-12-03T10:11:30.843Z,85.48
2017-12-03T10:13:59.149Z,85.50
2017-12-03T10:16:27.519Z,85.33
2017-12-03T10:18:55.868Z,85.55
2017-12-03T10:21:25.725Z,85.54
2017-12-03T10:23:54.033Z,85.49
2017-12-03T10:26:22.360Z,85.55
2017-12-03T10:28:50.773Z,85.57
2017-12-03T10:31:20.597Z,85.73
2017-12-03T10:33:48.930Z,85.74
2017-12-03T10:36:17.245Z,85.75
2017-12-03T10:38:46.381Z,85.95
2017-12-03T10:41:15.487Z,86.13
2017-12-03T10:43:43.805Z,86.25
2017-12-03T10:46:12.115Z,86.52
2017-12-03T10:48:41.217Z,86.60
2017-12-03T10:51:10.322Z,86.40
2017-12-03T10:53:38.666Z,86.42
2017-12-03T10:56:06.989Z,86.58
2017-12-03T10:58:36.479Z,86.71
2017-12-03T11:01:05.087Z,86.76
2017-12-03T11:03:34.239Z,86.77
2017-12-03T11:06:03.075Z,87.00
2017-12-03T11:08:31.932Z,87.10
2017-12-03T11:11:01.701Z,87.23
2017-12-03T11:13:30.729Z,87.30
2017-12-03T11:15:59.155Z,87.47
2017-12-03T11:18:28.372Z,87.60
2017-12-03T11:20:56.730Z,87.65
2017-12-03T11:23:25.025Z,87.68
2017-12-03T11:25:53.412Z,87.69
2017-12-03T11:28:21.765Z,87.75
2017-12-03T11:30:50.957Z,87.88
2017-12-03T11:33:21.646Z,88.05
2017-12-03T11:35:51.044Z,88.09
2017-12-03T11:38:19.380Z,88.10
2017-12-03T11:40:49.205Z,88.23
2017-12-03T11:43:17.565Z,88.24
2017-12-03T11:45:45.912Z,88.31
2017-12-03T11:48:14.232Z,88.36
2017-12-03T11:50:43.306Z,88.31
2017-12-03T11:53:11.611Z,88.33
2017-12-03T11:55:40.694Z,88.39
2017-12-03T11:58:09.011Z,88.18
2017-12-03T12:00:38.150Z,88.01
2017-12-03T12:03:06.849Z,87.97
2017-12-03T12:05:35.170Z,87.80
2017-12-03T12:08:04.244Z,87.89
2017-12-03T12:10:33.321Z,87.91
2017-12-03T12:13:01.755Z,87.87
2017-12-03T12:15:30.114Z,88.00
2017-12-03T12:17:58.449Z,88.09
2017-12-03T12:20:27.082Z,87.88
2017-12-03T12:22:55.434Z,88.07
2017-12-03T12:25:23.757Z,88.07
2017-12-03T12:27:52.888Z,87.80
2017-12-03T12:30:21.996Z,87.45
2017-12-03T12:32:51.064Z,87.43
2017-12-03T12:35:19.430Z,87.30
2017-12-03T12:37:47.760Z,86.89
2017-12-03T12:40:16.108Z,86.85
2017-12-03T12:42:45.237Z,86.88
2017-12-03T12:45:13.588Z,86.78
2017-12-03T12:47:42.048Z,86.55
2017-12-03T12:50:10.352Z,86.52
2017-12-03T12:52:38.717Z,86.50
2017-12-03T12:55:07.049Z,86.48
2017-12-03T12:57:35.372Z,86.18
2017-12-03T13:00:03.702Z,85.93
2017-12-03T13:02:32.202Z,85.85
2017-12-03T13:05:00.523Z,85.96
2017-12-03T13:07:28.942Z,85.95
2017-12-03T13:09:58.056Z,85.78
2017-12-03T13:12:26.410Z,85.83
2017-12-03T13:14:54.763Z,85.80
2017-12-03T13:17:23.084Z,85.84
2017-12-03T13:19:51.404Z,85.77
2017-12-03T13:22:19.723Z,85.67
2017-12-03T13:24:48.062Z,85.55
2017-12-03T13:27:16.361Z,85.44
2017-12-03T13:29:44.688Z,85.33
2017-12-03T13:32:13.014Z,85.17
2017-12-03T13:34:41.390Z,85.20
2017-12-03T13:37:09.828Z,85.12
2017-12-03T13:39:38.260Z,85.14
2017-12-03T13:42:06.588Z,84.88
2017-12-03T13:44:35.728Z,84.56
2017-12-03T13:47:04.078Z,84.36
2017-12-03T13:49:32.410Z,84.19
2017-12-03T13:52:00.760Z,83.84
2017-12-03T13:54:29.844Z,83.22
2017-12-03T13:56:58.161Z,82.57
2017-12-03T13:59:26.547Z,82.11
2017-12-03T14:01:55.580Z,81.64
2017-12-03T14:04:23.938Z,81.00
2017-12-03T14:06:52.246Z,80.49
2017-12-03T14:09:20.608Z,80.24
2017-12-03T14:11:48.922Z,80.16
2017-12-03T14:14:17.242Z,80.60
2017-12-03T14:16:45.603Z,80.57
2017-12-03T14:19:13.956Z,81.10
2017-12-03T14:21:42.262Z,80.82
2017-12-03T14:24:11.442Z,81.57
2017-12-03T14:26:39.832Z,83.28
2017-12-03T14:29:09.808Z,83.49
2017-12-03T14:31:38.718Z,83.24
2017-12-03T14:34:07.028Z,83.09
2017-12-03T14:36:35.395Z,83.39
2017-12-03T14:39:03.726Z,83.95
2017-12-03T14:41:32.079Z,84.34
2017-12-03T14:44:01.154Z,85.72
2017-12-03T14:46:29.487Z,85.77
2017-12-03T14:48:57.790Z,85.45
2017-12-03T14:51:26.112Z,85.23
2017-12-03T14:53:54.440Z,85.10
2017-12-03T14:56:22.767Z,85.20
2017-12-03T14:58:51.126Z,85.18
2017-12-03T15:01:19.427Z,85.12
2017-12-03T15:03:48.512Z,85.13
2017-12-03T15:06:16.827Z,85.29
2017-12-03T15:08:47.102Z,85.42
2017-12-03T15:11:15.418Z,85.47
2017-12-03T15:13:43.737Z,85.48
2017-12-03T15:16:12.068Z,85.42
2017-12-03T15:18:40.403Z,85.34
2017-12-03T15:21:08.720Z,85.32
2017-12-03T15:23:37.178Z,85.19
2017-12-03T15:26:05.494Z,85.27
2017-12-03T15:28:33.956Z,85.36
2017-12-03T15:31:02.278Z,85.39
2017-12-03T15:33:31.461Z,85.21
2017-12-03T15:35:59.778Z,85.23
2017-12-03T15:38:28.862Z,85.41
2017-12-03T15:40:57.952Z,85.25
2017-12-03T15:43:26.402Z,85.18
2017-12-03T15:45:54.764Z,85.06
2017-12-03T15:48:23.191Z,84.82
2017-12-03T15:50:51.499Z,84.68
2017-12-03T15:53:20.599Z,84.33
2017-12-03T15:55:49.678Z,84.13
2017-12-03T15:58:18.786Z,84.01
2017-12-03T16:00:48.101Z,83.73
2017-12-03T16:03:17.178Z,83.74
2017-12-03T16:05:46.273Z,83.59
2017-12-03T16:08:15.349Z,83.47
2017-12-03T16:10:43.672Z,83.45
2017-12-03T16:13:12.801Z,83.38
2017-12-03T16:15:41.132Z,83.30
2017-12-03T16:18:10.192Z,83.48
2017-12-03T16:20:38.507Z,83.39
2017-12-03T16:23:06.827Z,83.41
2017-12-03T16:25:35.959Z,83.38
2017-12-03T16:28:04.285Z,83.15
2017-12-03T16:30:32.600Z,83.10
2017-12-03T16:33:00.926Z,82.82
2017-12-03T16:35:29.955Z,82.56
2017-12-03T16:37:59.036Z,82.44
2017-12-03T16:40:28.112Z,82.42
2017-12-03T16:42:56.688Z,82.40
2017-12-03T16:45:25.042Z,82.27
2017-12-03T16:47:53.371Z,82.32
2017-12-03T16:50:23.222Z,82.32
2017-12-03T16:52:52.328Z,82.03
2017-12-03T16:55:20.644Z,81.92
2017-12-03T16:57:49.062Z,81.61
2017-12-03T17:00:17.375Z,81.18
2017-12-03T17:02:45.673Z,81.19
2017-12-03T17:05:13.987Z,81.12
2017-12-03T17:07:42.297Z,80.98
2017-12-03T17:10:10.645Z,80.96
2017-12-03T17:12:38.972Z,81.17
2017-12-03T17:15:08.063Z,81.18
2017-12-03T17:17:37.184Z,81.14
2017-12-03T17:20:05.525Z,80.96
2017-12-03T17:22:33.880Z,80.72
2017-12-03T17:25:02.177Z,80.58
2017-12-03T17:27:30.517Z,80.64
2017-12-03T17:29:58.823Z,80.62
2017-12-03T17:32:27.190Z,80.58
2017-12-03T17:34:55.507Z,80.48
2017-12-03T17:37:24.573Z,80.42
2017-12-03T17:39:52.889Z,80.37
2017-12-03T17:42:21.984Z,80.21
2017-12-03T17:44:51.801Z,80.25
2017-12-03T17:47:20.143Z,80.15
2017-12-03T17:49:48.465Z,79.99
2017-12-03T17:52:17.709Z,80.06
2017-12-03T17:54:46.054Z,79.97
2017-12-03T17:57:15.149Z,79.98
2017-12-03T17:59:44.287Z,80.00
2017-12-03T18:02:12.603Z,80.26
2017-12-03T18:04:40.936Z,80.38
2017-12-03T18:07:09.253Z,80.53
2017-12-03T18:09:37.583Z,80.65
2017-12-03T18:12:05.891Z,80.69
2017-12-03T18:14:34.191Z,80.85
2017-12-03T18:17:02.602Z,80.86
2017-12-03T18:19:30.942Z,81.00
2017-12-03T18:21:59.260Z,80.97
2017-12-03T18:24:27.560Z,80.85
2017-12-03T18:26:55.863Z,80.59
2017-12-03T18:29:24.195Z,80.26
2017-12-03T18:31:52.498Z,80.15
2017-12-03T18:34:20.851Z,80.00
2017-12-03T18:36:49.171Z,79.82
2017-12-03T18:39:17.511Z,79.64
2017-12-03T18:41:45.848Z,79.59
2017-12-03T18:44:14.202Z,79.53
2017-12-03T18:46:42.535Z,79.01
2017-12-03T18:49:10.822Z,78.72
2017-12-03T18:51:39.153Z,78.47
2017-12-03T18:54:07.473Z,78.49
2017-12-03T18:56:35.995Z,78.50
2017-12-03T18:59:04.309Z,78.35
2017-12-03T19:01:32.652Z,78.49
2017-12-03T19:04:00.971Z,78.24
2017-12-03T19:06:30.059Z,77.97
2017-12-03T19:08:58.385Z,77.79
2017-12-03T19:11:26.713Z,77.86
2017-12-03T19:13:55.177Z,78.01
2017-12-03T19:16:23.529Z,78.18
2017-12-03T19:18:51.857Z,78.32
2017-12-03T19:21:20.167Z,78.42
2017-12-03T19:23:49.280Z,78.55
2017-12-03T19:26:18.540Z,78.56
2017-12-03T19:28:47.138Z,78.57
2017-12-03T19:31:15.479Z,78.64
2017-12-03T19:33:43.850Z,78.62
2017-12-03T19:36:12.153Z,78.70
2017-12-03T19:38:40.626Z,78.64
2017-12-03T19:41:08.956Z,78.63
2017-12-03T19:43:37.296Z,78.66
2017-12-03T19:46:05.583Z,78.82
2017-12-03T19:48:33.911Z,78.74
2017-12-03T19:51:02.976Z,78.66
2017-12-03T19:53:32.395Z,78.73
2017-12-03T19:56:01.517Z,78.71
2017-12-03T19:58:29.832Z,78.77
2017-12-03T20:00:59.123Z,78.75
2017-12-03T20:03:27.438Z,78.51
2017-12-03T20:05:56.021Z,78.67
2017-12-03T20:08:24.366Z,79.08
2017-12-03T20:10:52.683Z,79.63
2017-12-03T20:13:21.011Z,80.47
2017-12-03T20:15:49.460Z,81.30
2017-12-03T20:18:19.982Z,81.47
2017-12-03T20:20:48.817Z,81.44
2017-12-03T20:23:17.886Z,81.49
2017-12-03T20:25:46.244Z,81.79
2017-12-03T20:28:14.551Z,82.04
2017-12-03T20:30:42.853Z,82.50
2017-12-03T20:33:11.910Z,82.60
2017-12-03T20:35:40.229Z,82.48
2017-12-03T20:38:09.322Z,82.54
2017-12-03T20:40:38.396Z,82.40
2017-12-03T20:43:07.462Z,82.11
2017-12-03T20:45:35.794Z,81.87
2017-12-03T20:48:04.117Z,82.12
2017-12-03T20:50:32.469Z,82.17
2017-12-03T20:53:01.561Z,81.88
2017-12-03T20:55:30.670Z,81.80
2017-12-03T20:57:59.905Z,81.60
2017-12-03T21:00:28.295Z,81.54
2017-12-03T21:02:56.609Z,81.78
2017-12-03T21:05:24.933Z,82.07
2017-12-03T21:07:53.233Z,82.06
2017-12-03T21:10:21.554Z,81.93
2017-12-03T21:12:49.865Z,81.82
2017-12-03T21:15:18.989Z,81.88
2017-12-03T21:17:47.318Z,81.94
2017-12-03T21:20:17.176Z,81.84
2017-12-03T21:22:45.655Z,81.53
2017-12-03T21:25:13.948Z,81.41
2017-12-03T21:27:42.324Z,81.48
2017-12-03T21:30:10.645Z,81.66
2017-12-03T21:32:38.958Z,81.78
2017-12-03T21:35:08.066Z,81.80
2017-12-03T21:37:37.157Z,81.80
2017-12-03T21:40:06.300Z,81.92
2017-12-03T21:42:34.603Z,81.99
2017-12-03T21:45:02.934Z,81.93
2017-12-03T21:47:31.232Z,81.99
2017-12-03T21:49:59.526Z,81.82
2017-12-03T21:52:27.832Z,81.62
2017-12-03T21:54:56.144Z,81.54
2017-12-03T21:57:25.222Z,81.16
2017-12-03T21:59:54.276Z,81.02
2017-12-03T22:02:22.600Z,81.01
2017-12-03T22:04:51.710Z,80.94
2017-12-03T22:07:20.795Z,80.81
2017-12-03T22:09:49.092Z,80.81
2017-12-03T22:12:18.195Z,80.71
2017-12-03T22:14:47.280Z,80.71
2017-12-03T22:17:16.356Z,80.80
2017-12-03T22:19:45.448Z,80.73
2017-12-03T22:22:13.758Z,80.65
2017-12-03T22:24:42.100Z,80.93
2017-12-03T22:27:10.523Z,81.56
2017-12-03T22:29:38.843Z,81.76
2017-12-03T22:32:07.154Z,81.72
2017-12-03T22:34:35.530Z,81.92
2017-12-03T22:37:03.863Z,81.94
2017-12-03T22:39:32.948Z,82.20
2017-12-03T22:42:01.518Z,82.10
2017-12-03T22:44:29.833Z,81.69
2017-12-03T22:46:58.890Z,81.46
2017-12-03T22:49:27.202Z,81.58
2017-12-03T22:51:56.296Z,81.73
2017-12-03T22:54:25.414Z,81.77
2017-12-03T22:56:53.732Z,81.85
2017-12-03T22:59:22.055Z,81.85
2017-12-03T23:01:51.146Z,81.92
2017-12-03T23:04:19.466Z,82.11
2017-12-03T23:06:47.768Z,82.23
2017-12-03T23:09:16.074Z,82.29
2017-12-03T23:11:44.420Z,82.39
2017-12-03T23:14:12.736Z,82.54
2017-12-03T23:16:41.046Z,82.63
2017-12-03T23:19:10.120Z,82.54
2017-12-03T23:21:38.427Z,82.53
2017-12-03T23:24:07.505Z,82.49
2017-12-03T23:26:36.594Z,82.42
2017-12-03T23:29:04.926Z,82.39
2017-12-03T23:31:33.256Z,82.36
2017-12-03T23:34:02.328Z,82.21
2017-12-03T23:36:30.636Z,81.71
2017-12-03T23:38:58.948Z,81.32
2017-12-03T23:41:28.016Z,81.29
2017-12-03T23:43:56.340Z,81.08
2017-12-03T23:46:24.664Z,80.68
2017-12-03T23:48:52.984Z,79.69
2017-12-03T23:51:22.053Z,79.56
2017-12-03T23:53:50.425Z,79.72
2017-12-03T23:56:18.766Z,79.81
2017-12-03T23:58:47.084Z,80.11
